Weather at Tucson International Airport / Morris Air National Guard Base

Public forecast

Using degrees Fahrenheit for public forecast. Weather courtesy of forecast.io.

Current aviation weather report (METAR) for Tucson International Airport / Morris Air National Guard Base

Retrieved 2022/08/13 14:53 UTC (22 minutes ago):

KTUS 131453Z 16006KT 10SM CLR 26/19 A3010 RMK AO2 SLP148 T02610194 53014

Aviation forecast (TAF) for Tucson International Airport / Morris Air National Guard Base

Retrieved 2022/08/13 12:22 UTC (3 hours ago):

TAF KTUS 131120Z 1312/1412 14008KT P6SM FEW120 SCT200 FM131900 31005KT P6SM SCT100 SCT200 FM132100 32008KT P6SM VCSH SCT080 SCT120 BKN200 FM140200 15008KT P6SM BKN120 BKN200